Orrville, OH

9:56 PM EST on February 24, 2017 (GMT -0500)
Weilersville | | Change Station
Active Advisory: Severe Thunderstorm Watch

Elev 1102 ft 40.84 °N, 81.85 °W | Updated 36 seconds ago

Partly Cloudy
Partly Cloudy
64.1 °F
Feels Like 64.1 °F
N
5.0
Wind Variable Wind from ESE

Today
High -- | Low -- °F
--% Chance of Precip.
Yesterday
High -- | Low -- °F
Precip. -- in
Pressure 29.53 in
Visibility 10.0 miles
Clouds Clear
Dew Point 54 °F
Humidity 70%
Rainfall 0.00 in
Snow Depth Not available.
7:08 AM 6:12 PM
Waning Crescent, 3% visible
METAR KBJJ 250156Z AUTO 14007KT 10SM CLR 17/09 A2954 RMK AO2 SLP000 T01670094
Pressure 29.53 in
Visibility 10.0 miles
Clouds Clear
Dew Point 54 °F
Humidity 70%
Rainfall 0.00 in
Snow Depth Not available.
7:08 AM 6:12 PM
Waning Crescent, 3% visible
METAR KBJJ 250156Z AUTO 14007KT 10SM CLR 17/09 A2954 RMK AO2 SLP000 T01670094

Get Your Daily Forecast Email!

Thanks for signing up!

Be on the lookout for a verification email in your inbox.

You'll start receiving the daily forecast at 8 AM.

×

10-Day Weather Forecast

Almanac

Astronomy

Feb. 24, 2017 Rise Set
Actual Time
Civil Twilight
Nautical Twilight
Astronomical Twilight
Moon
Length of Visible Light
Length of Day
Tomorrow will be .
, % of the Moon is Illuminated

Today's Extremes

State Highs State Lows

Community

WunderPhotos

Upload Photos

1,962,540 photos uploaded!

WunderBlog® & News

Nearby

Air Quality

  Air Quality AQ Index Pollutant
Not available.

Snow Depth

Station Depth Elevation

Earthquake Activity

City Distance Mag. Time & Date
Minimum magnitude displayed is 2.5.

Coastal Water Temperatures

Place Temperature

Stations

Nearby Weather Stations

Station Location Temp. Windchill Dew Point Humidity Wind Precip. Elev Updated Type
                   

Watches & Warnings

Severe Thunderstorm Watch
Issued: 9:43 PM EST Feb. 24, 2017 – National Weather Service

Severe Thunderstorm Watch 38 remains in effect until 200 am EST

OH
. Ohio counties included are

Adams Ashland Brown
Champaign Clark Clermont
Clinton Crawford Cuyahoga
Delaware Erie Fairfield
Fayette Franklin Greene
Hancock Highland Hocking
Holmes Huron Knox
Licking Lorain Lucas
Madison Marion Medina
Morrow Ottawa Pickaway
Pike Richland Ross
Sandusky Scioto Seneca
Union Warren Wayne
wood Wyandot